Time;durP1;ratioP1;P1;durP2;ratioP2;P2;SDS_P1;SDS_P2;PMS_P1;PMS_P2;Temp;Humidity;BMP_temperature;BMP_pressure;BME280_temperature;BME280_humidity;BME280_pressure;Samples;Min_cycle;Max_cycle;Signal;HPM_P1;HPM_P2
2021/06/09 00:01:31;;;;;;;16.52;15.02;;;20.10;88.20;;;;;;5031196;28;20094;-58
2021/06/09 00:04:15;;;;;;;18.67;17.08;;;19.90;89.30;;;;;;5014520;28;20037;-53
2021/06/09 00:06:59;;;;;;;17.52;16.02;;;19.80;89.40;;;;;;5011467;28;20103;-55
2021/06/09 00:09:43;;;;;;;19.58;17.77;;;19.90;89.00;;;;;;5023432;28;20563;-54
2021/06/09 00:12:27;;;;;;;20.45;18.30;;;20.00;88.50;;;;;;5011797;28;20108;-54
2021/06/09 00:15:13;;;;;;;17.15;15.57;;;20.10;88.40;;;;;;5024546;28;20059;-56
2021/06/09 00:17:58;;;;;;;17.85;16.25;;;20.00;88.50;;;;;;5041101;28;20038;-55
2021/06/09 00:20:42;;;;;;;17.83;16.08;;;20.20;88.00;;;;;;5034182;28;20113;-53
2021/06/09 00:23:28;;;;;;;19.08;17.10;;;20.10;87.90;;;;;;5020051;28;20115;-56
2021/06/09 00:26:14;;;;;;;17.65;16.08;;;20.10;88.20;;;;;;5028535;28;20044;-58
2021/06/09 00:28:58;;;;;;;18.75;16.85;;;20.10;87.90;;;;;;5031884;28;20076;-54
2021/06/09 00:31:42;;;;;;;19.35;17.52;;;20.10;88.10;;;;;;5017141;28;20033;-53
2021/06/09 00:34:26;;;;;;;;;;;20.10;88.40;;;;;;5034795;28;20122;-55
2021/06/09 00:37:11;;;;;;;17.58;15.88;;;20.00;88.80;;;;;;5033594;28;20281;-56
2021/06/09 00:39:55;;;;;;;18.08;16.42;;;20.00;88.80;;;;;;5033598;28;20041;-54
2021/06/09 00:42:40;;;;;;;18.38;16.48;;;20.00;88.30;;;;;;5033774;28;20076;-53
2021/06/09 00:45:24;;;;;;;17.80;15.88;;;20.10;88.40;;;;;;5021910;28;20072;-56
2021/06/09 00:48:09;;;;;;;17.00;15.50;;;20.10;88.50;;;;;;5014548;28;20562;-52
2021/06/09 00:50:53;;;;;;;;;;;20.10;88.50;;;;;;5016193;28;20049;-55
2021/06/09 00:53:41;;;;;;;16.65;15.18;;;20.10;88.40;;;;;;5028111;28;19960;-54
2021/06/09 00:56:26;;;;;;;17.58;15.77;;;20.10;88.30;;;;;;5034376;28;20504;-53
2021/06/09 00:59:10;;;;;;;18.23;16.33;;;20.10;88.10;;;;;;5032883;28;20060;-54
2021/06/09 01:01:54;;;;;;;17.20;15.43;;;20.00;88.20;;;;;;5033748;28;20028;-55
2021/06/09 01:04:39;;;;;;;16.40;14.80;;;20.00;88.50;;;;;;5023926;28;20037;-56
2021/06/09 01:07:23;;;;;;;16.27;14.65;;;20.00;88.20;;;;;;5023852;28;20108;-54
2021/06/09 01:10:08;;;;;;;16.42;14.85;;;20.00;88.20;;;;;;5025755;28;20091;-54
2021/06/09 01:12:53;;;;;;;16.83;15.32;;;20.10;88.00;;;;;;5024780;28;20492;-57
2021/06/09 01:15:38;;;;;;;17.00;15.30;;;20.00;87.90;;;;;;5022808;28;20165;-58
2021/06/09 01:18:23;;;;;;;14.93;13.63;;;20.00;88.00;;;;;;5023686;28;20045;-56
2021/06/09 01:21:07;;;;;;;15.68;14.18;;;20.00;88.00;;;;;;5023709;28;20087;-55
2021/06/09 01:23:52;;;;;;;;;;;19.90;87.70;;;;;;5024608;28;20044;-57
2021/06/09 01:26:38;;;;;;;15.02;13.50;;;19.90;87.30;;;;;;5024807;28;20427;-56
2021/06/09 01:29:25;;;;;;;15.55;13.98;;;19.90;87.20;;;;;;5023016;28;20112;-55
2021/06/09 01:32:09;;;;;;;15.63;14.23;;;19.90;86.90;;;;;;5022809;28;20041;-56
2021/06/09 01:34:53;;;;;;;15.52;14.02;;;19.90;87.00;;;;;;5022756;28;20036;-54
2021/06/09 01:37:38;;;;;;;15.80;13.70;;;20.00;87.20;;;;;;5022756;28;20455;-55
2021/06/09 01:40:24;;;;;;;16.60;14.32;;;20.00;87.40;;;;;;5023382;28;20068;-56
2021/06/09 01:43:08;;;;;;;15.73;14.02;;;19.90;87.60;;;;;;5022289;28;20189;-55
2021/06/09 01:45:54;;;;;;;;;;;19.80;88.30;;;;;;5022526;28;20153;-58
2021/06/09 01:48:38;;;;;;;15.65;14.07;;;19.80;88.10;;;;;;5022382;28;20017;-53
2021/06/09 01:51:22;;;;;;;15.63;14.18;;;19.70;88.10;;;;;;5021876;28;20036;-54
2021/06/09 01:54:07;;;;;;;15.82;14.30;;;19.70;87.90;;;;;;5024392;28;20070;-53
2021/06/09 01:56:52;;;;;;;15.77;14.05;;;19.50;88.50;;;;;;5021375;28;20037;-51
2021/06/09 01:59:37;;;;;;;14.20;12.93;;;19.50;88.40;;;;;;5019693;28;20115;-51
2021/06/09 02:02:21;;;;;;;15.00;13.57;;;19.50;88.60;;;;;;5021658;28;20044;-56
2021/06/09 02:05:06;;;;;;;;;;;19.50;88.20;;;;;;5024459;28;20065;-52
2021/06/09 02:07:51;;;;;;;;;;;19.50;88.20;;;;;;5023872;28;19963;-58
2021/06/09 02:10:37;;;;;;;13.18;11.77;;;19.60;88.40;;;;;;5023009;28;19916;-55
2021/06/09 02:13:23;;;;;;;13.35;12.05;;;19.60;88.20;;;;;;5022737;28;20057;-58
2021/06/09 02:16:07;;;;;;;13.98;11.75;;;19.70;88.00;;;;;;5022474;28;20045;-55
2021/06/09 02:18:51;;;;;;;12.60;11.40;;;19.70;87.50;;;;;;5023283;28;20036;-53
2021/06/09 02:21:37;;;;;;;12.98;11.60;;;19.80;87.10;;;;;;5022973;28;20073;-52
2021/06/09 02:24:21;;;;;;;13.00;11.70;;;19.80;86.70;;;;;;5021929;28;20044;-54
2021/06/09 02:27:06;;;;;;;;;;;19.80;86.00;;;;;;5024212;28;20033;-54
2021/06/09 02:29:50;;;;;;;13.20;11.93;;;19.70;86.20;;;;;;5020808;28;19924;-50
2021/06/09 02:32:35;;;;;;;11.63;10.52;;;19.60;86.50;;;;;;5021250;28;20032;-53
2021/06/09 02:35:20;;;;;;;11.85;10.65;;;19.60;86.80;;;;;;5021660;28;20041;-53
2021/06/09 02:38:05;;;;;;;12.73;11.48;;;19.70;86.50;;;;;;5019795;28;20084;-56
2021/06/09 02:40:53;;;;;;;13.00;11.38;;;19.70;86.20;;;;;;5022360;28;20035;-53
2021/06/09 02:43:38;;;;;;;11.80;10.60;;;19.60;86.40;;;;;;5021544;28;20039;-54
2021/06/09 02:46:38;;;;;;;11.82;10.68;;;19.70;86.30;;;;;;5019611;28;20060;-55
2021/06/09 02:49:26;;;;;;;11.25;10.25;;;19.70;86.20;;;;;;5022148;28;20041;-58
2021/06/09 02:52:27;;;;;;;11.27;10.27;;;19.70;86.10;;;;;;5023193;28;20163;-57
2021/06/09 02:55:24;;;;;;;13.32;11.35;;;19.70;86.00;;;;;;5022575;28;20037;-54
2021/06/09 02:58:14;;;;;;;11.13;10.13;;;19.70;85.80;;;;;;5021114;28;20153;-55
2021/06/09 03:01:24;;;;;;;11.98;10.77;;;19.80;85.80;;;;;;5020270;28;20111;-56
2021/06/09 03:04:17;;;;;;;11.52;10.43;;;19.80;85.50;;;;;;5022114;28;20159;-54
2021/06/09 03:07:18;;;;;;;11.73;10.63;;;19.80;85.30;;;;;;5020190;28;20397;-52
2021/06/09 03:10:03;;;;;;;12.18;10.10;;;19.70;85.10;;;;;;5022806;28;20048;-58
2021/06/09 03:12:54;;;;;;;11.40;10.30;;;19.70;85.10;;;;;;5022568;28;20033;-54
2021/06/09 03:15:45;;;;;;;10.68;9.52;;;19.70;85.20;;;;;;5020938;28;20025;-54
2021/06/09 03:18:40;;;;;;;11.48;10.00;;;19.70;85.10;;;;;;5021562;28;20063;-59
2021/06/09 03:21:37;;;;;;;10.52;9.52;;;19.80;85.00;;;;;;5022039;28;20028;-57
2021/06/09 03:24:29;;;;;;;13.52;9.77;;;19.80;84.70;;;;;;5021564;28;20516;-58
2021/06/09 03:27:22;;;;;;;14.50;9.18;;;19.90;84.40;;;;;;5022445;28;20044;-56
2021/06/09 03:30:12;;;;;;;10.70;9.70;;;19.80;84.20;;;;;;5019928;28;20135;-53
2021/06/09 03:33:02;;;;;;;11.05;9.80;;;19.80;84.40;;;;;;5020890;28;20029;-55
2021/06/09 03:35:55;;;;;;;10.40;9.50;;;19.80;84.00;;;;;;5019901;28;20033;-56
2021/06/09 03:38:47;;;;;;;13.38;10.38;;;19.90;84.00;;;;;;5020778;28;20037;-54
2021/06/09 03:41:37;;;;;;;10.80;9.07;;;19.90;83.60;;;;;;5020208;28;20131;-57
2021/06/09 03:44:30;;;;;;;11.00;8.88;;;19.80;83.40;;;;;;5019954;28;20385;-57
2021/06/09 03:47:17;;;;;;;11.15;9.55;;;19.80;83.40;;;;;;5021376;28;20115;-56
2021/06/09 03:50:02;;;;;;;10.02;9.15;;;19.80;83.20;;;;;;5021952;28;20045;-57
2021/06/09 03:52:47;;;;;;;9.90;8.80;;;19.70;83.40;;;;;;5026009;28;20114;-56
2021/06/09 03:55:35;;;;;;;;;;;19.80;83.20;;;;;;5027036;28;20425;-56
2021/06/09 03:58:20;;;;;;;9.93;8.73;;;19.80;83.30;;;;;;5024716;28;19912;-57
2021/06/09 04:01:06;;;;;;;10.05;9.05;;;19.80;83.10;;;;;;5026282;28;20119;-56
2021/06/09 04:03:51;;;;;;;11.05;8.98;;;19.70;83.10;;;;;;5023753;28;20028;-55
2021/06/09 04:06:42;;;;;;;12.02;8.82;;;19.80;83.20;;;;;;5024271;28;20446;-53
2021/06/09 04:09:27;;;;;;;9.77;8.13;;;19.80;83.10;;;;;;5025028;28;20028;-53
2021/06/09 04:12:13;;;;;;;10.85;8.52;;;19.80;82.70;;;;;;5026160;28;20084;-53
2021/06/09 04:15:00;;;;;;;9.00;8.10;;;19.90;82.40;;;;;;5023715;28;20496;-55
2021/06/09 04:17:48;;;;;;;10.07;8.13;;;19.90;82.20;;;;;;5025971;28;20036;-51
2021/06/09 04:20:34;;;;;;;9.90;7.88;;;20.10;81.80;;;;;;5022726;28;20033;-54
2021/06/09 04:23:18;;;;;;;9.05;8.07;;;20.10;81.40;;;;;;5022625;28;20052;-54
2021/06/09 04:26:04;;;;;;;10.63;8.52;;;20.10;81.00;;;;;;5025864;28;20032;-57
2021/06/09 04:28:49;;;;;;;9.20;8.25;;;20.10;80.80;;;;;;5023128;28;20044;-53
2021/06/09 04:31:34;;;;;;;11.30;8.15;;;20.10;80.50;;;;;;5025689;28;20021;-52
2021/06/09 04:34:19;;;;;;;8.88;6.90;;;20.20;80.20;;;;;;5024538;28;20117;-58
2021/06/09 04:37:03;;;;;;;8.40;7.57;;;20.20;80.30;;;;;;5024487;28;20040;-56
2021/06/09 04:39:48;;;;;;;21.67;9.25;;;20.20;79.80;;;;;;5023438;28;20107;-56
2021/06/09 04:42:33;;;;;;;19.50;8.75;;;20.30;79.30;;;;;;5022679;28;20078;-55
2021/06/09 04:45:18;;;;;;;10.60;7.40;;;20.30;78.90;;;;;;5023729;28;20041;-56
2021/06/09 04:48:13;;;;;;;10.50;7.43;;;20.30;78.70;;;;;;5023401;28;20045;-56
2021/06/09 04:50:57;;;;;;;9.88;7.50;;;20.30;78.40;;;;;;5023645;28;20029;-56
2021/06/09 04:53:41;;;;;;;15.00;8.20;;;20.40;78.40;;;;;;5024453;28;20095;-55
2021/06/09 04:56:34;;;;;;;9.32;7.35;;;20.30;78.40;;;;;;5024693;28;20045;-54
2021/06/09 04:59:18;;;;;;;9.18;7.50;;;20.30;78.60;;;;;;5025910;28;20086;-52
2021/06/09 05:02:03;;;;;;;12.80;7.85;;;20.20;78.80;;;;;;5023688;28;20048;-55
2021/06/09 05:04:47;;;;;;;12.52;8.63;;;20.20;79.00;;;;;;5022557;28;20048;-56
2021/06/09 05:07:31;;;;;;;9.95;7.53;;;20.20;79.10;;;;;;5024555;28;20091;-58
2021/06/09 05:10:15;;;;;;;11.07;8.18;;;20.20;79.30;;;;;;5022026;28;20053;-53
2021/06/09 05:13:16;;;;;;;9.30;7.30;;;20.20;79.30;;;;;;5021567;28;20088;-55
2021/06/09 05:16:11;;;;;;;11.32;7.00;;;20.10;79.70;;;;;;5024616;28;20126;-53
2021/06/09 05:18:57;;;;;;;10.85;8.07;;;20.10;79.80;;;;;;5023432;28;20044;-54
2021/06/09 05:21:41;;;;;;;11.27;8.07;;;20.10;79.80;;;;;;5023289;28;20088;-54
2021/06/09 05:24:27;;;;;;;9.38;7.53;;;20.10;79.30;;;;;;5021931;28;20508;-51
2021/06/09 05:27:15;;;;;;;14.68;8.57;;;20.00;80.10;;;;;;5024888;28;20562;-52
2021/06/09 05:30:01;;;;;;;9.63;7.35;;;19.90;79.60;;;;;;5021611;28;20044;-54
2021/06/09 05:32:45;;;;;;;8.57;7.43;;;20.00;79.70;;;;;;5024149;28;20044;-55
2021/06/09 05:35:31;;;;;;;9.73;7.60;;;20.10;79.50;;;;;;5024584;28;20048;-56
2021/06/09 05:38:18;;;;;;;9.95;7.88;;;20.00;79.10;;;;;;5022339;28;20036;-53
2021/06/09 05:41:02;;;;;;;17.42;15.10;;;20.10;79.20;;;;;;5023381;28;20087;-56
2021/06/09 05:43:46;;;;;;;12.88;10.60;;;20.30;79.30;;;;;;5021379;28;20045;-58
2021/06/09 05:46:31;;;;;;;11.57;8.85;;;20.40;79.00;;;;;;5024173;28;20750;-57
2021/06/09 05:49:20;;;;;;;10.25;9.32;;;20.60;78.60;;;;;;5022403;28;20041;-53
2021/06/09 05:52:05;;;;;;;16.13;11.73;;;20.60;78.30;;;;;;5024281;28;20083;-57
2021/06/09 05:54:49;;;;;;;16.80;8.25;;;20.70;78.20;;;;;;5022844;28;20092;-55
2021/06/09 05:57:33;;;;;;;8.80;7.45;;;20.60;77.90;;;;;;5022147;28;20080;-55
2021/06/09 06:00:19;;;;;;;9.43;7.60;;;20.60;78.30;;;;;;5023171;28;20060;-58
2021/06/09 06:03:04;;;;;;;7.88;6.80;;;20.60;78.20;;;;;;5023699;28;20041;-55
2021/06/09 06:05:50;;;;;;;;;;;20.70;77.60;;;;;;5023800;28;20452;-56
2021/06/09 06:08:37;;;;;;;13.10;7.80;;;20.90;77.20;;;;;;5021215;28;19928;-53
2021/06/09 06:11:22;;;;;;;12.05;7.63;;;20.90;77.30;;;;;;5022158;28;20044;-58
2021/06/09 06:14:10;;;;;;;10.20;7.50;;;20.90;77.70;;;;;;5022200;28;20103;-54
2021/06/09 06:16:56;;;;;;;9.18;7.53;;;20.90;77.20;;;;;;5022201;28;20041;-55
2021/06/09 06:19:40;;;;;;;8.45;7.70;;;21.00;77.30;;;;;;5022864;28;20042;-55
2021/06/09 06:22:24;;;;;;;11.00;7.43;;;21.10;77.20;;;;;;5022292;28;20108;-55
2021/06/09 06:25:09;;;;;;;13.65;7.75;;;21.30;76.60;;;;;;5021964;28;20553;-55
2021/06/09 06:27:56;;;;;;;11.57;7.57;;;21.20;76.70;;;;;;5021108;28;20057;-56
2021/06/09 06:30:41;;;;;;;12.57;8.35;;;21.40;76.60;;;;;;5022487;28;20065;-55
2021/06/09 06:33:26;;;;;;;11.77;7.28;;;21.20;75.80;;;;;;5025369;28;20064;-54
2021/06/09 06:36:12;;;;;;;16.17;7.57;;;21.10;76.40;;;;;;5023002;28;20148;-55
2021/06/09 06:38:57;;;;;;;9.70;7.25;;;21.20;76.40;;;;;;5020887;28;20587;-55
2021/06/09 06:41:42;;;;;;;7.38;6.68;;;21.20;76.00;;;;;;5022410;28;20052;-55
2021/06/09 06:44:27;;;;;;;7.95;6.75;;;21.10;76.50;;;;;;5022838;28;20528;-55
2021/06/09 06:47:12;;;;;;;7.78;7.03;;;21.20;76.10;;;;;;5028481;28;20072;-57
2021/06/09 06:50:01;;;;;;;7.45;6.65;;;21.40;76.00;;;;;;5019904;28;20049;-57
2021/06/09 06:52:45;;;;;;;7.72;6.80;;;21.50;76.10;;;;;;5020407;28;20442;-54
2021/06/09 06:55:30;;;;;;;;;;;21.50;76.00;;;;;;5021200;28;20194;-57
2021/06/09 06:58:15;;;;;;;8.77;6.68;;;21.60;75.60;;;;;;5021012;28;20427;-59
2021/06/09 07:01:00;;;;;;;9.85;7.55;;;21.50;75.50;;;;;;5020796;28;20045;-57
2021/06/09 07:03:45;;;;;;;10.30;6.82;;;21.60;75.20;;;;;;5021959;28;20058;-57
2021/06/09 07:06:32;;;;;;;8.20;6.22;;;21.60;75.00;;;;;;5032253;28;20095;-54
2021/06/09 07:09:17;;;;;;;9.38;6.70;;;21.70;74.20;;;;;;5025883;28;20504;-50
2021/06/09 07:12:03;;;;;;;8.63;6.97;;;21.90;74.10;;;;;;5011225;28;20028;-55
2021/06/09 07:14:48;;;;;;;9.07;6.45;;;22.10;74.40;;;;;;5022612;28;20052;-55
2021/06/09 07:17:40;;;;;;;8.48;6.30;;;22.10;73.10;;;;;;5022107;28;20029;-56
2021/06/09 07:20:26;;;;;;;7.10;6.30;;;22.00;73.90;;;;;;5020247;28;20164;-53
2021/06/09 07:23:11;;;;;;;6.97;6.00;;;21.90;73.90;;;;;;5019422;28;20106;-58
2021/06/09 07:25:56;;;;;;;9.50;6.80;;;21.90;73.80;;;;;;5025033;28;20091;-54
2021/06/09 07:28:54;;;;;;;7.93;6.50;;;22.10;73.80;;;;;;5031334;28;20080;-54
2021/06/09 07:31:43;;;;;;;13.15;6.88;;;22.10;73.60;;;;;;5012535;28;20076;-54
2021/06/09 07:34:27;;;;;;;9.55;6.47;;;22.30;73.60;;;;;;5021260;28;20051;-56
2021/06/09 07:37:16;;;;;;;8.50;7.03;;;22.40;73.50;;;;;;5021121;28;20519;-54
2021/06/09 07:40:02;;;;;;;7.97;6.88;;;22.40;73.40;;;;;;5019305;28;20412;-56
2021/06/09 07:42:53;;;;;;;7.82;6.55;;;22.50;73.10;;;;;;5028350;28;20545;-53
2021/06/09 07:45:40;;;;;;;9.60;6.38;;;22.60;72.70;;;;;;5025050;28;20049;-54
2021/06/09 07:48:27;;;;;;;11.23;7.15;;;22.60;72.60;;;;;;5021408;28;20084;-56
2021/06/09 07:51:14;;;;;;;7.90;6.55;;;22.70;72.00;;;;;;5019617;28;20531;-56
2021/06/09 07:54:00;;;;;;;7.38;6.43;;;22.70;72.10;;;;;;5010767;28;20507;-56
2021/06/09 07:56:46;;;;;;;9.32;6.88;;;22.70;71.90;;;;;;5026331;28;20032;-55
2021/06/09 07:59:31;;;;;;;7.70;6.97;;;22.70;72.20;;;;;;5030433;28;20095;-54
2021/06/09 08:02:21;;;;;;;8.88;7.22;;;22.80;72.50;;;;;;5013482;28;20032;-52
2021/06/09 08:05:07;;;;;;;9.57;7.00;;;22.80;73.00;;;;;;5019906;28;20032;-54
2021/06/09 08:07:52;;;;;;;11.32;7.28;;;22.90;72.50;;;;;;5018027;28;20041;-57
2021/06/09 08:10:36;;;;;;;9.50;7.35;;;23.00;73.10;;;;;;5019127;28;20165;-56
2021/06/09 08:13:21;;;;;;;8.52;7.60;;;23.00;72.50;;;;;;5026231;28;20036;-59
2021/06/09 08:16:17;;;;;;;11.68;8.00;;;22.90;72.30;;;;;;5010436;28;20044;-58
2021/06/09 08:19:05;;;;;;;8.35;7.18;;;22.90;72.80;;;;;;5020961;28;20039;-54
2021/06/09 08:21:50;;;;;;;7.75;7.05;;;22.90;72.70;;;;;;5012484;28;20237;-56
2021/06/09 08:24:34;;;;;;;7.63;6.93;;;23.10;72.80;;;;;;5030512;28;20041;-57
2021/06/09 08:27:18;;;;;;;10.07;7.70;;;23.20;72.60;;;;;;5029206;28;20596;-54
2021/06/09 08:30:04;;;;;;;9.95;7.60;;;23.50;72.20;;;;;;5030528;28;20103;-55
2021/06/09 08:32:49;;;;;;;10.75;8.88;;;23.50;71.90;;;;;;5021845;28;20060;-60
2021/06/09 08:35:33;;;;;;;8.95;8.07;;;23.40;72.20;;;;;;5031039;28;20088;-59
2021/06/09 08:38:17;;;;;;;17.52;13.32;;;23.40;72.40;;;;;;5022211;28;20044;-56
2021/06/09 08:41:03;;;;;;;10.23;9.27;;;23.50;71.90;;;;;;5015003;28;20040;-55
2021/06/09 08:43:48;;;;;;;23.00;9.40;;;23.70;71.40;;;;;;5016215;28;20041;-56
2021/06/09 08:46:35;;;;;;;18.15;8.80;;;24.00;70.60;;;;;;5025955;28;20033;-57
2021/06/09 08:49:22;;;;;;;11.48;8.15;;;24.30;69.90;;;;;;5033613;28;20511;-56
2021/06/09 08:52:09;;;;;;;10.30;7.55;;;24.20;69.90;;;;;;5015094;28;20500;-57
2021/06/09 08:54:53;;;;;;;11.43;8.10;;;24.30;70.20;;;;;;5027049;28;20040;-58
2021/06/09 08:57:39;;;;;;;14.73;8.43;;;24.50;69.80;;;;;;5014414;28;20036;-59
2021/06/09 09:00:23;;;;;;;13.45;7.50;;;24.50;69.80;;;;;;5014922;28;20065;-58
2021/06/09 09:03:08;;;;;;;;;;;24.50;70.00;;;;;;5015220;28;20084;-56
2021/06/09 09:05:52;;;;;;;8.02;7.22;;;24.50;69.80;;;;;;5029906;28;19917;-60
2021/06/09 09:08:36;;;;;;;8.30;7.45;;;24.50;69.90;;;;;;5024056;28;20199;-59
2021/06/09 09:11:24;;;;;;;10.95;8.40;;;24.40;70.20;;;;;;5028773;28;20041;-56
2021/06/09 09:14:08;;;;;;;13.50;8.70;;;24.30;70.30;;;;;;5026740;28;20401;-58
2021/06/09 09:17:09;;;;;;;8.40;7.30;;;24.40;70.40;;;;;;5029518;28;20037;-56
2021/06/09 09:20:05;;;;;;;12.52;8.98;;;24.40;70.40;;;;;;5027623;28;20047;-58
2021/06/09 09:22:51;;;;;;;15.35;9.13;;;24.20;70.50;;;;;;4999456;28;20087;-55
2021/06/09 09:25:36;;;;;;;12.07;8.73;;;24.20;70.80;;;;;;5018564;28;20164;-61
2021/06/09 09:28:30;;;;;;;9.65;8.00;;;24.20;71.20;;;;;;5020589;28;20092;-54
2021/06/09 09:31:17;;;;;;;10.70;8.38;;;24.30;71.60;;;;;;5013949;28;20040;-56
2021/06/09 09:34:01;;;;;;;8.00;7.30;;;24.30;71.00;;;;;;5013919;28;20044;-56
2021/06/09 09:36:45;;;;;;;7.82;7.03;;;24.30;70.60;;;;;;5015054;28;20041;-59
2021/06/09 09:39:34;;;;;;;11.85;8.18;;;24.30;71.00;;;;;;5024156;28;20049;-54
2021/06/09 09:42:31;;;;;;;8.48;7.68;;;24.30;70.70;;;;;;5032714;28;20155;-57
2021/06/09 09:45:21;;;;;;;9.60;7.50;;;24.40;70.50;;;;;;5020193;28;20088;-54
2021/06/09 09:48:19;;;;;;;11.38;7.20;;;24.40;70.20;;;;;;5012468;28;20111;-55
2021/06/09 09:51:04;;;;;;;9.23;7.05;;;24.40;70.00;;;;;;5032597;28;20105;-57
2021/06/09 09:53:57;;;;;;;8.27;7.47;;;24.50;70.10;;;;;;5032917;28;20512;-58
2021/06/09 09:56:43;;;;;;;7.22;6.60;;;24.40;70.10;;;;;;5013793;28;20501;-57
2021/06/09 09:59:29;;;;;;;7.95;6.95;;;24.30;70.00;;;;;;5018128;28;20044;-56
2021/06/09 10:02:17;;;;;;;8.43;7.53;;;24.50;69.90;;;;;;5028108;28;20044;-61
2021/06/09 10:05:13;;;;;;;9.23;8.13;;;24.50;70.20;;;;;;5029573;28;21610;-57
2021/06/09 10:08:05;;;;;;;11.55;8.20;;;24.60;70.30;;;;;;5031148;28;20067;-56
2021/06/09 10:10:49;;;;;;;8.77;7.88;;;24.60;70.50;;;;;;5030285;28;20103;-55
2021/06/09 10:13:33;;;;;;;9.00;8.07;;;24.60;70.80;;;;;;5014420;28;20083;-58
2021/06/09 10:16:29;;;;;;;9.52;8.40;;;24.50;70.90;;;;;;5013244;28;20088;-58
2021/06/09 10:19:15;;;;;;;8.93;8.02;;;24.60;70.60;;;;;;5027919;28;20037;-55
2021/06/09 10:22:05;;;;;;;11.38;8.32;;;24.70;70.70;;;;;;5032930;28;20099;-55
2021/06/09 10:24:56;;;;;;;16.15;9.80;;;24.80;70.80;;;;;;5015857;28;20036;-55
2021/06/09 10:27:48;;;;;;;11.75;6.97;;;24.90;70.70;;;;;;5031813;28;20040;-54
2021/06/09 10:30:34;;;;;;;12.35;9.57;;;25.10;70.60;;;;;;5032927;28;20515;-53
2021/06/09 10:33:19;;;;;;;11.93;10.82;;;25.30;70.50;;;;;;5012976;28;20076;-56
2021/06/09 10:36:04;;;;;;;14.65;10.35;;;25.40;69.90;;;;;;5014754;28;20088;-57
2021/06/09 10:38:48;;;;;;;23.23;9.75;;;25.60;69.30;;;;;;5032274;28;20040;-56
2021/06/09 10:41:33;;;;;;;12.38;8.30;;;25.70;69.70;;;;;;5027359;28;20111;-54
2021/06/09 10:44:20;;;;;;;14.75;8.40;;;25.80;68.30;;;;;;5013069;28;20088;-55
2021/06/09 10:47:09;;;;;;;8.35;7.25;;;25.70;67.70;;;;;;5021181;28;20041;-54
2021/06/09 10:49:54;;;;;;;8.40;7.60;;;25.80;67.50;;;;;;5031039;28;20075;-54
2021/06/09 10:52:39;;;;;;;8.27;7.47;;;25.80;66.90;;;;;;5012798;28;20068;-53
2021/06/09 10:55:23;;;;;;;8.63;7.68;;;25.80;66.90;;;;;;5015467;28;20061;-55
2021/06/09 10:58:09;;;;;;;9.38;8.48;;;25.90;67.10;;;;;;5031260;28;20404;-56
2021/06/09 11:00:57;;;;;;;10.48;7.72;;;26.10;66.40;;;;;;5022477;28;20135;-55
2021/06/09 11:03:47;;;;;;;15.95;10.95;;;25.80;65.50;;;;;;5017136;28;20102;-54
2021/06/09 11:06:43;;;;;;;11.82;8.95;;;25.60;66.40;;;;;;5018520;28;20037;-58
2021/06/09 11:09:29;;;;;;;9.85;8.07;;;25.60;66.60;;;;;;5015183;28;20041;-56
2021/06/09 11:12:13;;;;;;;9.98;7.88;;;25.70;66.60;;;;;;5012288;28;20444;-54
2021/06/09 11:15:01;;;;;;;8.65;7.82;;;26.00;65.40;;;;;;5023968;28;20039;-54
2021/06/09 11:17:49;;;;;;;10.07;8.63;;;26.20;63.70;;;;;;5031446;28;20389;-56
2021/06/09 11:20:37;;;;;;;14.25;13.00;;;26.30;62.60;;;;;;5015989;28;20045;-54
2021/06/09 11:23:37;;;;;;;10.48;9.57;;;26.10;63.70;;;;;;5012181;28;20152;-55
2021/06/09 11:26:27;;;;;;;11.13;8.75;;;26.00;64.00;;;;;;5021520;28;20053;-55
2021/06/09 11:29:28;;;;;;;9.65;8.27;;;25.90;64.90;;;;;;5014908;28;20044;-56
2021/06/09 11:32:23;;;;;;;9.15;8.35;;;26.10;64.80;;;;;;5035275;28;20037;-57
2021/06/09 11:35:07;;;;;;;;;;;26.30;64.60;;;;;;5023523;28;20113;-55
2021/06/09 11:38:11;;;;;;;8.27;7.47;;;26.50;64.30;;;;;;5011882;28;19917;-53
2021/06/09 11:41:14;;;;;;;8.75;7.80;;;26.70;63.70;;;;;;5020209;28;20083;-53
2021/06/09 11:43:59;;;;;;;8.70;7.80;;;26.60;63.00;;;;;;5023883;28;20157;-57
2021/06/09 11:46:43;;;;;;;;;;;26.60;62.40;;;;;;5012278;28;20096;-55
2021/06/09 11:49:28;;;;;;;11.73;7.20;;;26.70;62.30;;;;;;5011821;28;20277;-58
2021/06/09 11:52:13;;;;;;;13.38;7.75;;;26.70;62.70;;;;;;5011730;28;20033;-56
2021/06/09 11:55:09;;;;;;;8.98;7.40;;;26.70;63.20;;;;;;5030037;28;20512;-59
2021/06/09 11:58:12;;;;;;;8.00;7.20;;;26.90;62.70;;;;;;5011722;28;20081;-52
2021/06/09 12:01:07;;;;;;;9.07;7.07;;;27.00;62.30;;;;;;5012161;28;20092;-54
2021/06/09 12:04:16;;;;;;;7.95;6.85;;;27.10;62.40;;;;;;5013258;28;20037;-58
2021/06/09 12:07:06;;;;;;;8.07;7.28;;;27.20;62.00;;;;;;5031162;28;20044;-56
2021/06/09 12:09:55;;;;;;;8.38;7.47;;;27.40;61.90;;;;;;5031224;28;20523;-54
2021/06/09 12:12:39;;;;;;;8.23;7.43;;;27.40;61.50;;;;;;5035065;28;20061;-58
2021/06/09 12:15:23;;;;;;;8.93;7.85;;;27.30;61.70;;;;;;5018031;28;20041;-58
2021/06/09 12:18:07;;;;;;;;;;;27.50;61.80;;;;;;5018908;28;20044;-55
2021/06/09 12:21:04;;;;;;;7.28;6.68;;;27.40;62.00;;;;;;5031278;28;19920;-59
2021/06/09 12:23:54;;;;;;;8.15;7.05;;;27.50;62.10;;;;;;5023460;28;20446;-55
2021/06/09 12:26:38;;;;;;;9.25;7.43;;;27.60;61.60;;;;;;5035621;28;20543;-59
2021/06/09 12:29:30;;;;;;;13.75;8.38;;;27.50;61.40;;;;;;5030569;28;20571;-57
2021/06/09 12:32:29;;;;;;;10.27;7.90;;;27.70;61.20;;;;;;5022312;28;20091;-56
2021/06/09 12:35:16;;;;;;;8.02;7.22;;;27.80;61.10;;;;;;5018364;28;20044;-57
2021/06/09 12:38:06;;;;;;;9.50;7.50;;;28.00;61.10;;;;;;5034871;28;20036;-57
2021/06/09 12:40:50;;;;;;;6.72;6.15;;;28.10;61.30;;;;;;5021238;28;20117;-57
2021/06/09 12:43:34;;;;;;;7.97;7.18;;;28.30;61.20;;;;;;5014316;28;20037;-56
2021/06/09 12:46:19;;;;;;;;;;;28.50;61.00;;;;;;5015766;28;20133;-57
2021/06/09 12:49:03;;;;;;;;;;;28.70;59.40;;;;;;5031858;28;19919;-56
2021/06/09 12:52:00;;;;;;;8.20;6.65;;;28.50;61.00;;;;;;5035329;28;20004;-56
2021/06/09 12:54:53;;;;;;;7.82;6.03;;;28.40;60.80;;;;;;5034583;28;20037;-56
2021/06/09 12:57:37;;;;;;;7.43;6.75;;;28.40;61.20;;;;;;5031251;28;20044;-56
2021/06/09 13:00:31;;;;;;;9.57;7.00;;;28.40;61.50;;;;;;5018209;28;20081;-54
2021/06/09 13:03:20;;;;;;;7.28;6.57;;;28.30;61.60;;;;;;5022722;28;20112;-55
2021/06/09 13:06:18;;;;;;;8.35;6.75;;;28.40;61.90;;;;;;5020001;28;20032;-57
2021/06/09 13:09:03;;;;;;;7.13;6.43;;;28.30;61.50;;;;;;5014201;28;20119;-56
2021/06/09 13:11:48;;;;;;;9.38;7.25;;;28.40;61.30;;;;;;5014666;28;20505;-58
2021/06/09 13:14:35;;;;;;;7.93;7.20;;;28.70;60.60;;;;;;5015427;28;20153;-56
2021/06/09 13:17:20;;;;;;;8.38;6.60;;;28.90;59.30;;;;;;5027163;28;20080;-56
2021/06/09 13:20:10;;;;;;;8.82;7.10;;;29.10;59.60;;;;;;5014391;28;20040;-55
2021/06/09 13:22:54;;;;;;;13.00;10.68;;;29.20;59.10;;;;;;5044363;28;20559;-56
2021/06/09 13:25:38;;;;;;;8.18;7.30;;;29.20;58.70;;;;;;5033370;28;20112;-57
2021/06/09 13:28:31;;;;;;;10.60;8.43;;;29.30;58.60;;;;;;5025162;28;20044;-59
2021/06/09 13:31:26;;;;;;;7.68;6.75;;;29.40;57.80;;;;;;5035753;28;20040;-56
2021/06/09 13:34:12;;;;;;;7.57;6.90;;;29.30;57.80;;;;;;5030281;28;20035;-59
2021/06/09 13:36:59;;;;;;;7.95;7.15;;;28.80;58.60;;;;;;5024513;28;20049;-59
2021/06/09 13:39:49;;;;;;;7.75;7.13;;;28.20;58.60;;;;;;5013344;28;20068;-56
2021/06/09 13:42:35;;;;;;;8.60;7.20;;;28.20;59.60;;;;;;5026845;28;20060;-56
2021/06/09 13:45:22;;;;;;;8.70;7.80;;;27.90;60.50;;;;;;5014411;28;20044;-60
2021/06/09 13:48:10;;;;;;;7.70;7.00;;;27.30;61.30;;;;;;5013806;28;20037;-58
2021/06/09 13:51:14;;;;;;;27.20;9.02;;;27.10;62.00;;;;;;5014288;28;20077;-60
2021/06/09 13:54:05;;;;;;;14.60;8.05;;;27.70;61.50;;;;;;5027034;28;20108;-57
2021/06/09 13:56:49;;;;;;;10.07;7.53;;;28.40;61.00;;;;;;5019826;28;20037;-60
2021/06/09 13:59:34;;;;;;;11.00;7.43;;;29.20;59.20;;;;;;5028396;28;20036;-60
2021/06/09 14:02:24;;;;;;;7.53;6.82;;;29.50;58.20;;;;;;5015354;28;20720;-57
2021/06/09 14:05:15;;;;;;;7.97;6.80;;;29.40;58.20;;;;;;5020057;28;20709;-56
2021/06/09 14:08:06;;;;;;;7.65;7.05;;;29.30;58.20;;;;;;5014741;28;20122;-59
2021/06/09 14:10:52;;;;;;;8.02;7.15;;;29.70;58.20;;;;;;5032426;28;20495;-57
2021/06/09 14:13:37;;;;;;;10.73;7.50;;;30.10;56.80;;;;;;5035996;28;20036;-60
2021/06/09 14:16:20;;;;;;;;;;;30.40;56.00;;;;;;5034408;28;20060;-58
2021/06/09 14:19:08;;;;;;;7.65;6.90;;;30.60;55.90;;;;;;5033314;28;19916;-61
2021/06/09 14:21:52;;;;;;;8.23;7.53;;;30.90;55.70;;;;;;5026164;28;20503;-58
2021/06/09 14:24:39;;;;;;;8.57;6.50;;;31.20;54.60;;;;;;5014386;28;20040;-60
2021/06/09 14:27:23;;;;;;;10.98;8.02;;;31.30;55.10;;;;;;5032159;28;20094;-61